createdAt,value
2017-10-01T00:01:07.378Z,100834.69
2017-10-01T00:03:34.794Z,100836.02
2017-10-01T00:06:02.191Z,100838.88
2017-10-01T00:08:29.589Z,100838.25
2017-10-01T00:10:57.034Z,100834.67
2017-10-01T00:13:24.426Z,100832.42
2017-10-01T00:15:51.826Z,100829.75
2017-10-01T00:18:19.223Z,100828.30
2017-10-01T00:20:46.630Z,100836.48
2017-10-01T00:23:14.038Z,100835.44
2017-10-01T00:25:41.431Z,100836.69
2017-10-01T00:28:08.835Z,100830.63
2017-10-01T00:30:36.233Z,100821.80
2017-10-01T00:33:03.634Z,100822.94
2017-10-01T00:35:31.032Z,100824.38
2017-10-01T00:37:58.460Z,100827.95
2017-10-01T00:40:26.076Z,100824.13
2017-10-01T00:42:53.480Z,100828.84
2017-10-01T00:45:20.895Z,100827.06
2017-10-01T00:47:48.299Z,100829.34
2017-10-01T00:50:15.708Z,100829.95
2017-10-01T00:52:43.122Z,100834.46
2017-10-01T00:55:10.522Z,100840.03
2017-10-01T00:57:37.915Z,100839.72
2017-10-01T01:00:05.347Z,100836.19
2017-10-01T01:02:32.743Z,100847.54
2017-10-01T01:05:00.143Z,100844.12
2017-10-01T01:07:27.559Z,100842.45
2017-10-01T01:09:54.959Z,100845.43
2017-10-01T01:12:22.351Z,100844.67
2017-10-01T01:14:49.767Z,100841.49
2017-10-01T01:17:17.174Z,100842.30
2017-10-01T01:19:44.563Z,100847.86
2017-10-01T01:22:11.986Z,100849.48
2017-10-01T01:24:39.387Z,100848.02
2017-10-01T01:27:06.788Z,100852.62
2017-10-01T01:29:34.202Z,100844.73
2017-10-01T01:32:01.599Z,100839.56
2017-10-01T01:34:28.994Z,100839.32
2017-10-01T01:36:56.412Z,100846.48
2017-10-01T01:39:23.808Z,100861.73
2017-10-01T01:41:51.208Z,100863.20
2017-10-01T01:44:18.623Z,100859.36
2017-10-01T01:46:46.020Z,100858.42
2017-10-01T01:49:13.419Z,100859.30
2017-10-01T01:51:40.830Z,100864.22
2017-10-01T01:54:08.222Z,100873.41
2017-10-01T01:56:35.622Z,100869.17
2017-10-01T01:59:03.038Z,100865.78
2017-10-01T02:01:30.448Z,100869.05
2017-10-01T02:03:57.890Z,100866.59
2017-10-01T02:06:25.303Z,100873.25
2017-10-01T02:08:52.709Z,100868.86
2017-10-01T02:11:20.107Z,100868.23
2017-10-01T02:13:47.519Z,100866.69
2017-10-01T02:16:14.938Z,100869.75
2017-10-01T02:18:42.343Z,100875.02
2017-10-01T02:21:09.755Z,100872.38
2017-10-01T02:23:37.158Z,100879.92
2017-10-01T02:26:04.559Z,100872.63
2017-10-01T02:28:31.971Z,100874.14
2017-10-01T02:30:59.372Z,100869.20
2017-10-01T02:33:26.770Z,100862.76
2017-10-01T02:35:54.196Z,100865.27
2017-10-01T02:38:21.594Z,100859.73
2017-10-01T02:40:48.990Z,100860.09
2017-10-01T02:43:16.407Z,100861.11
2017-10-01T02:45:43.809Z,100862.66
2017-10-01T02:48:11.207Z,100869.38
2017-10-01T02:50:38.627Z,100870.37
2017-10-01T02:53:06.031Z,100877.83
2017-10-01T02:55:33.427Z,100873.91
2017-10-01T02:58:00.850Z,100868.66
2017-10-01T03:00:28.248Z,100869.60
2017-10-01T03:02:55.650Z,100864.80
2017-10-01T03:05:23.064Z,100866.23
2017-10-01T03:07:50.469Z,100866.03
2017-10-01T03:10:17.863Z,100867.84
2017-10-01T03:12:45.279Z,100868.16
2017-10-01T03:15:12.689Z,100867.29
2017-10-01T03:17:40.076Z,100870.38
2017-10-01T03:20:07.491Z,100866.27
2017-10-01T03:22:34.891Z,100873.14
2017-10-01T03:25:02.298Z,100872.26
2017-10-01T03:27:29.715Z,100870.83
2017-10-01T03:29:57.119Z,100875.13
2017-10-01T03:32:24.528Z,100873.48
2017-10-01T03:34:51.951Z,100879.66
2017-10-01T03:37:19.377Z,100876.22
2017-10-01T03:39:46.804Z,100876.22
2017-10-01T03:42:14.219Z,100876.64
2017-10-01T03:44:41.618Z,100872.12
2017-10-01T03:47:09.055Z,100875.41
2017-10-01T03:49:36.464Z,100876.36
2017-10-01T03:52:03.862Z,100874.70
2017-10-01T03:54:31.261Z,100878.28
2017-10-01T03:56:58.678Z,100872.44
2017-10-01T03:59:26.079Z,100884.03
2017-10-01T04:01:53.484Z,100879.51
2017-10-01T04:04:22.001Z,100879.79
2017-10-01T04:06:49.394Z,100885.92
2017-10-01T04:09:16.791Z,100893.98
2017-10-01T04:11:44.206Z,100896.68
2017-10-01T04:14:11.607Z,100897.09
2017-10-01T04:16:39.006Z,100900.95
2017-10-01T04:19:06.453Z,100900.14
2017-10-01T04:21:34.071Z,100898.39
2017-10-01T04:24:01.474Z,100901.48
2017-10-01T04:26:28.884Z,100902.39
2017-10-01T04:28:56.282Z,100904.95
2017-10-01T04:31:23.682Z,100909.33
2017-10-01T04:33:51.086Z,100907.22
2017-10-01T04:36:18.499Z,100901.86
2017-10-01T04:38:45.915Z,100911.87
2017-10-01T04:41:13.327Z,100910.91
2017-10-01T04:43:40.753Z,100915.73
2017-10-01T04:46:08.147Z,100919.55
2017-10-01T04:48:35.562Z,100918.56
2017-10-01T04:51:02.959Z,100928.37
2017-10-01T04:53:30.365Z,100929.66
2017-10-01T04:55:57.772Z,100932.67
2017-10-01T04:58:25.163Z,100932.84
2017-10-01T05:00:52.559Z,100930.59
2017-10-01T05:03:19.975Z,100933.16
2017-10-01T05:05:47.380Z,100932.00
2017-10-01T05:08:14.796Z,100936.31
2017-10-01T05:10:42.223Z,100935.89
2017-10-01T05:13:09.619Z,100935.59
2017-10-01T05:15:37.032Z,100935.03
2017-10-01T05:18:04.462Z,100935.84
2017-10-01T05:20:32.126Z,100932.91
2017-10-01T05:22:59.539Z,100930.45
2017-10-01T05:25:26.959Z,100921.70
2017-10-01T05:27:54.363Z,100921.94
2017-10-01T05:30:21.751Z,100918.78
2017-10-01T05:32:49.168Z,100914.75
2017-10-01T05:35:16.569Z,100915.34
2017-10-01T05:37:43.960Z,100920.61
2017-10-01T05:40:11.379Z,100921.73
2017-10-01T05:42:38.780Z,100928.14
2017-10-01T05:45:06.179Z,100925.86
2017-10-01T05:47:33.599Z,100932.06
2017-10-01T05:50:01.004Z,100927.47
2017-10-01T05:52:28.475Z,100923.97
2017-10-01T05:54:55.892Z,100916.19
2017-10-01T05:57:23.304Z,100917.00
2017-10-01T05:59:50.715Z,100914.69
2017-10-01T06:02:18.133Z,100920.92
2017-10-01T06:04:45.543Z,100921.30
2017-10-01T06:07:12.942Z,100922.91
2017-10-01T06:09:40.359Z,100923.73
2017-10-01T06:12:07.760Z,100924.84
2017-10-01T06:14:35.165Z,100922.61
2017-10-01T06:17:02.575Z,100928.45
2017-10-01T06:19:29.976Z,100924.50
2017-10-01T06:21:57.386Z,100922.22
2017-10-01T06:24:24.804Z,100926.16
2017-10-01T06:26:52.209Z,100924.38
2017-10-01T06:29:19.620Z,100935.09
2017-10-01T06:31:47.039Z,100926.84
2017-10-01T06:34:14.447Z,100926.94
2017-10-01T06:36:41.854Z,100925.04
2017-10-01T06:39:09.280Z,100925.30
2017-10-01T06:41:36.684Z,100921.02
2017-10-01T06:44:04.084Z,100929.15
2017-10-01T06:46:31.506Z,100932.45
2017-10-01T06:48:58.908Z,100935.94
2017-10-01T06:51:26.315Z,100938.87
2017-10-01T06:53:53.749Z,100937.14
2017-10-01T06:56:21.143Z,100938.90
2017-10-01T06:58:48.543Z,100929.34
2017-10-01T07:01:15.960Z,100935.59
2017-10-01T07:03:43.356Z,100934.32
2017-10-01T07:06:10.763Z,100927.30
2017-10-01T07:08:38.176Z,100938.80
2017-10-01T07:11:05.574Z,100943.59
2017-10-01T07:13:32.979Z,100949.48
2017-10-01T07:16:00.391Z,100944.48
2017-10-01T07:18:27.798Z,100950.17
2017-10-01T07:20:55.200Z,100948.76
2017-10-01T07:23:22.607Z,100940.17
2017-10-01T07:25:50.015Z,100942.22
2017-10-01T07:28:17.415Z,100942.94
2017-10-01T07:30:44.827Z,100943.41
2017-10-01T07:33:12.245Z,100944.75
2017-10-01T07:35:39.642Z,100947.83
2017-10-01T07:38:07.074Z,100948.23
2017-10-01T07:40:34.466Z,100947.08
2017-10-01T07:43:01.862Z,100946.59
2017-10-01T07:45:29.278Z,100947.62
2017-10-01T07:47:56.680Z,100948.70
2017-10-01T07:50:24.075Z,100941.16
2017-10-01T07:52:51.486Z,100941.91
2017-10-01T07:55:18.918Z,100936.98
2017-10-01T07:57:46.315Z,100940.80
2017-10-01T08:00:13.731Z,100940.60
2017-10-01T08:02:41.175Z,100939.20
2017-10-01T08:05:08.566Z,100942.27
2017-10-01T08:07:35.974Z,100949.27
2017-10-01T08:10:03.387Z,100951.56
2017-10-01T08:12:30.781Z,100956.50
2017-10-01T08:14:58.198Z,100946.00
2017-10-01T08:17:25.624Z,100948.08
2017-10-01T08:19:53.007Z,100943.80
2017-10-01T08:22:20.427Z,100942.34
2017-10-01T08:24:47.822Z,100933.70
2017-10-01T08:27:15.223Z,100938.41
2017-10-01T08:29:42.691Z,100940.04
2017-10-01T08:32:12.163Z,100949.81
2017-10-01T08:34:39.571Z,100943.10
2017-10-01T08:37:07.002Z,100935.34
2017-10-01T08:39:34.407Z,100950.34
2017-10-01T08:42:01.814Z,100955.73
2017-10-01T08:44:29.218Z,100958.17
2017-10-01T08:46:56.619Z,100952.89
2017-10-01T08:49:24.024Z,100946.41
2017-10-01T08:51:54.934Z,100944.24
2017-10-01T08:54:22.335Z,100944.58
2017-10-01T08:56:49.739Z,100932.63
2017-10-01T08:59:17.170Z,100927.64
2017-10-01T09:01:44.623Z,100934.94
2017-10-01T09:04:12.020Z,100935.30
2017-10-01T09:06:39.439Z,100935.30
2017-10-01T09:09:06.845Z,100948.58
2017-10-01T09:11:34.251Z,100948.45
2017-10-01T09:14:18.075Z,100946.22
2017-10-01T09:16:45.475Z,100942.09
2017-10-01T09:19:12.941Z,100942.12
2017-10-01T09:21:40.447Z,100943.86
2017-10-01T09:24:08.837Z,100953.45
2017-10-01T09:26:36.233Z,100948.78
2017-10-01T09:29:03.662Z,100937.72
2017-10-01T09:31:31.047Z,100932.05
2017-10-01T09:34:01.236Z,100932.11
2017-10-01T09:36:28.731Z,100930.36
2017-10-01T09:38:56.126Z,100934.55
2017-10-01T09:41:23.540Z,100929.56
2017-10-01T09:43:50.954Z,100928.36
2017-10-01T09:46:18.368Z,100930.22
2017-10-01T09:48:45.766Z,100929.48
2017-10-01T09:51:13.176Z,100928.21
2017-10-01T09:53:40.571Z,100931.03
2017-10-01T09:56:08.033Z,100933.67
2017-10-01T09:58:35.435Z,100929.36
2017-10-01T10:01:02.823Z,100934.45
2017-10-01T10:03:30.223Z,100935.64
2017-10-01T10:05:57.719Z,100929.94
2017-10-01T10:08:25.118Z,100930.31
2017-10-01T10:10:52.523Z,100935.13
2017-10-01T10:13:19.947Z,100931.82
2017-10-01T10:15:47.725Z,100930.27
2017-10-01T10:18:15.109Z,100929.84
2017-10-01T10:20:42.514Z,100919.25
2017-10-01T10:23:09.990Z,100920.95
2017-10-01T10:25:37.409Z,100924.32
2017-10-01T10:28:04.824Z,100929.03
2017-10-01T10:30:32.251Z,100932.41
2017-10-01T10:32:59.731Z,100933.50
2017-10-01T10:35:27.202Z,100932.17
2017-10-01T10:37:55.818Z,100934.39
2017-10-01T10:40:23.199Z,100935.05
2017-10-01T10:42:50.602Z,100931.69
2017-10-01T10:45:17.995Z,100929.89
2017-10-01T10:47:45.383Z,100927.26
2017-10-01T10:50:13.795Z,100923.11
2017-10-01T10:52:41.203Z,100922.54
2017-10-01T10:55:08.605Z,100920.12
2017-10-01T10:57:36.003Z,100916.92
2017-10-01T11:00:04.228Z,100914.13
2017-10-01T11:02:32.259Z,100907.30
2017-10-01T11:05:01.151Z,100905.41
2017-10-01T11:07:28.543Z,100899.70
2017-10-01T11:09:55.935Z,100904.44
2017-10-01T11:12:23.368Z,100907.70
2017-10-01T11:14:50.764Z,100902.34
2017-10-01T11:17:18.253Z,100896.51
2017-10-01T11:19:45.650Z,100887.67
2017-10-01T11:22:13.044Z,100883.75
2017-10-01T11:24:40.447Z,100889.80
2017-10-01T11:27:07.847Z,100894.67
2017-10-01T11:29:35.251Z,100890.87
2017-10-01T11:32:02.647Z,100886.63
2017-10-01T11:34:30.056Z,100875.24
2017-10-01T11:36:57.443Z,100884.36
2017-10-01T11:39:24.835Z,100880.56
2017-10-01T11:41:52.252Z,100880.66
2017-10-01T11:44:19.643Z,100882.60
2017-10-01T11:46:47.050Z,100890.30
2017-10-01T11:49:14.476Z,100885.56
2017-10-01T11:51:41.869Z,100878.09
2017-10-01T11:54:09.288Z,100871.56
2017-10-01T11:56:36.698Z,100877.95
2017-10-01T11:59:04.124Z,100866.27
2017-10-01T12:01:31.549Z,100874.14
2017-10-01T12:03:58.967Z,100864.97
2017-10-01T12:06:26.375Z,100868.06
2017-10-01T12:08:54.731Z,100867.23
2017-10-01T12:11:22.135Z,100869.12
2017-10-01T12:13:49.555Z,100869.93
2017-10-01T12:16:16.945Z,100864.78
2017-10-01T12:18:44.350Z,100869.50
2017-10-01T12:21:11.747Z,100857.56
2017-10-01T12:23:39.144Z,100865.39
2017-10-01T12:26:06.838Z,100863.41
2017-10-01T12:28:34.232Z,100863.25
2017-10-01T12:31:01.627Z,100853.34
2017-10-01T12:33:29.032Z,100860.44
2017-10-01T12:35:56.430Z,100853.78
2017-10-01T12:38:23.827Z,100853.55
2017-10-01T12:40:51.236Z,100840.72
2017-10-01T12:43:18.634Z,100843.66
2017-10-01T12:45:46.036Z,100849.48
2017-10-01T12:48:13.588Z,100848.27
2017-10-01T12:50:40.980Z,100844.03
2017-10-01T12:53:08.372Z,100839.91
2017-10-01T12:55:35.774Z,100843.59
2017-10-01T12:58:18.553Z,100837.88
2017-10-01T13:00:45.959Z,100831.78
2017-10-01T13:03:13.355Z,100828.39
2017-10-01T13:05:40.754Z,100829.06
2017-10-01T13:08:08.155Z,100831.22
2017-10-01T13:10:35.549Z,100832.32
2017-10-01T13:13:02.951Z,100840.07
2017-10-01T13:15:30.365Z,100841.02
2017-10-01T13:17:57.763Z,100834.48
2017-10-01T13:20:25.155Z,100825.78
2017-10-01T13:22:52.583Z,100827.95
2017-10-01T13:25:19.971Z,100819.95
2017-10-01T13:27:47.363Z,100820.87
2017-10-01T13:30:14.771Z,100819.20
2017-10-01T13:32:42.167Z,100816.63
2017-10-01T13:35:09.572Z,100822.32
2017-10-01T13:37:36.975Z,100820.83
2017-10-01T13:40:04.376Z,100817.38
2017-10-01T13:42:31.774Z,100815.07
2017-10-01T13:44:59.178Z,100819.73
2017-10-01T13:47:26.568Z,100821.49
2017-10-01T13:49:53.968Z,100822.41
2017-10-01T13:52:21.390Z,100814.16
2017-10-01T13:54:48.772Z,100813.28
2017-10-01T13:57:16.162Z,100813.00
2017-10-01T13:59:43.576Z,100810.75
2017-10-01T14:02:10.962Z,100810.83
2017-10-01T14:04:38.360Z,100803.89
2017-10-01T14:07:05.771Z,100794.69
2017-10-01T14:09:33.159Z,100785.05
2017-10-01T14:12:00.548Z,100780.84
2017-10-01T14:14:27.952Z,100780.34
2017-10-01T14:16:55.343Z,100780.84
2017-10-01T14:19:22.735Z,100776.42
2017-10-01T14:21:50.139Z,100774.73
2017-10-01T14:24:17.527Z,100765.37
2017-10-01T14:26:44.933Z,100763.46
2017-10-01T14:29:12.335Z,100757.91
2017-10-01T14:31:39.736Z,100755.06
2017-10-01T14:34:07.127Z,100754.92
2017-10-01T14:36:34.527Z,100754.55
2017-10-01T14:39:01.915Z,100759.74
2017-10-01T14:41:29.307Z,100763.42
2017-10-01T14:43:56.714Z,100764.84
2017-10-01T14:46:24.111Z,100773.33
2017-10-01T14:48:51.504Z,100767.28
2017-10-01T14:51:18.919Z,100771.03
2017-10-01T14:53:46.312Z,100769.41
2017-10-01T14:56:13.707Z,100768.76
2017-10-01T14:58:41.118Z,100762.66
2017-10-01T15:01:08.504Z,100758.84
2017-10-01T15:03:35.900Z,100761.09
2017-10-01T15:06:03.327Z,100752.30
2017-10-01T15:08:30.719Z,100746.95
2017-10-01T15:10:58.110Z,100747.36
2017-10-01T15:13:25.630Z,100736.50
2017-10-01T15:15:53.030Z,100732.03
2017-10-01T15:18:20.426Z,100723.88
2017-10-01T15:20:47.840Z,100729.52
2017-10-01T15:23:15.231Z,100729.12
2017-10-01T15:25:42.619Z,100739.05
2017-10-01T15:28:10.019Z,100741.88
2017-10-01T15:30:37.424Z,100741.06
2017-10-01T15:33:04.815Z,100741.11
2017-10-01T15:35:32.231Z,100744.18
2017-10-01T15:37:59.620Z,100739.25
2017-10-01T15:40:27.011Z,100740.46
2017-10-01T15:42:54.416Z,100747.62
2017-10-01T15:45:21.808Z,100742.26
2017-10-01T15:47:49.200Z,100747.03
2017-10-01T15:50:16.611Z,100741.07
2017-10-01T15:52:44.007Z,100738.04
2017-10-01T15:55:11.403Z,100731.11
2017-10-01T15:57:38.814Z,100728.77
2017-10-01T16:00:06.251Z,100726.30
2017-10-01T16:02:33.624Z,100731.97
2017-10-01T16:05:01.032Z,100720.19
2017-10-01T16:07:28.431Z,100715.09
2017-10-01T16:09:55.819Z,100722.39
2017-10-01T16:12:23.225Z,100719.22
2017-10-01T16:14:50.619Z,100723.56
2017-10-01T16:17:18.013Z,100726.39
2017-10-01T16:19:45.432Z,100736.84
2017-10-01T16:22:12.818Z,100732.57
2017-10-01T16:24:40.220Z,100735.08
2017-10-01T16:27:07.624Z,100733.04
2017-10-01T16:29:35.024Z,100729.72
2017-10-01T16:32:02.416Z,100735.53
2017-10-01T16:34:29.820Z,100735.09
2017-10-01T16:36:57.217Z,100727.59
2017-10-01T16:39:24.604Z,100725.23
2017-10-01T16:41:52.022Z,100725.70
2017-10-01T16:44:19.422Z,100724.63
2017-10-01T16:46:46.829Z,100721.98
2017-10-01T16:49:14.246Z,100724.21
2017-10-01T16:51:41.639Z,100725.42
2017-10-01T16:54:09.035Z,100724.62
2017-10-01T16:56:36.441Z,100721.22
2017-10-01T16:59:03.831Z,100716.20
2017-10-01T17:01:31.223Z,100711.50
2017-10-01T17:03:58.642Z,100720.78
2017-10-01T17:06:26.040Z,100719.16
2017-10-01T17:08:53.446Z,100717.78
2017-10-01T17:11:20.845Z,100720.90
2017-10-01T17:13:48.243Z,100736.06
2017-10-01T17:16:15.631Z,100726.41
2017-10-01T17:18:43.044Z,100726.42
2017-10-01T17:21:10.444Z,100730.66
2017-10-01T17:23:37.848Z,100723.98
2017-10-01T17:26:05.280Z,100719.31
2017-10-01T17:28:32.680Z,100720.44
2017-10-01T17:31:00.074Z,100720.21
2017-10-01T17:33:27.496Z,100718.93
2017-10-01T17:35:54.900Z,100723.16
2017-10-01T17:38:22.311Z,100724.80
2017-10-01T17:40:49.716Z,100731.40
2017-10-01T17:43:17.111Z,100730.12
2017-10-01T17:45:44.516Z,100728.00
2017-10-01T17:48:11.934Z,100729.34
2017-10-01T17:50:39.352Z,100733.09
2017-10-01T17:53:06.743Z,100724.16
2017-10-01T17:55:34.156Z,100717.48
2017-10-01T17:58:01.560Z,100709.64
2017-10-01T18:00:28.958Z,100715.44
2017-10-01T18:02:56.375Z,100710.41
2017-10-01T18:05:23.759Z,100709.70
2017-10-01T18:07:51.151Z,100707.02
2017-10-01T18:10:18.576Z,100705.98
2017-10-01T18:12:45.963Z,100703.64
2017-10-01T18:15:13.355Z,100709.86
2017-10-01T18:17:40.762Z,100710.72
2017-10-01T18:20:08.152Z,100703.67
2017-10-01T18:22:35.546Z,100701.42
2017-10-01T18:25:02.947Z,100693.41
2017-10-01T18:27:30.402Z,100703.25
2017-10-01T18:29:57.798Z,100700.81
2017-10-01T18:32:25.232Z,100702.48
2017-10-01T18:34:52.626Z,100702.42
2017-10-01T18:37:20.019Z,100715.48
2017-10-01T18:39:47.428Z,100721.54
2017-10-01T18:42:14.821Z,100726.42
2017-10-01T18:44:42.211Z,100718.15
2017-10-01T18:47:09.620Z,100715.05
2017-10-01T18:49:37.859Z,100709.28
2017-10-01T18:52:05.264Z,100705.41
2017-10-01T18:54:32.679Z,100710.27
2017-10-01T18:57:00.080Z,100699.25
2017-10-01T18:59:27.474Z,100699.96
2017-10-01T19:01:54.896Z,100702.81
2017-10-01T19:04:22.331Z,100697.36
2017-10-01T19:06:49.726Z,100707.62
2017-10-01T19:09:17.136Z,100706.02
2017-10-01T19:11:44.539Z,100708.32
2017-10-01T19:14:11.950Z,100710.76
2017-10-01T19:16:39.381Z,100705.05
2017-10-01T19:19:06.772Z,100693.45
2017-10-01T19:21:34.164Z,100684.04
2017-10-01T19:24:01.579Z,100681.41
2017-10-01T19:26:28.983Z,100687.91
2017-10-01T19:28:56.375Z,100690.70
2017-10-01T19:31:23.779Z,100692.66
2017-10-01T19:33:51.176Z,100690.12
2017-10-01T19:36:18.568Z,100695.02
2017-10-01T19:38:45.999Z,100686.86
2017-10-01T19:41:13.415Z,100679.78
2017-10-01T19:43:40.815Z,100680.35
2017-10-01T19:46:08.222Z,100680.29
2017-10-01T19:48:35.623Z,100672.92
2017-10-01T19:51:03.028Z,100676.16
2017-10-01T19:53:30.452Z,100680.00
2017-10-01T19:55:57.836Z,100674.69
2017-10-01T19:58:25.229Z,100674.45
2017-10-01T20:00:52.675Z,100677.73
2017-10-01T20:03:20.073Z,100670.87
2017-10-01T20:05:47.471Z,100664.05
2017-10-01T20:08:14.875Z,100661.13
2017-10-01T20:10:42.270Z,100654.15
2017-10-01T20:13:09.660Z,100653.89
2017-10-01T20:15:37.073Z,100659.50
2017-10-01T20:18:04.459Z,100648.61
2017-10-01T20:20:31.851Z,100645.21
2017-10-01T20:22:59.262Z,100642.02
2017-10-01T20:25:26.659Z,100643.26
2017-10-01T20:27:54.055Z,100641.69
2017-10-01T20:30:21.467Z,100630.45
2017-10-01T20:32:48.866Z,100639.22
2017-10-01T20:35:16.256Z,100630.51
2017-10-01T20:37:43.674Z,100627.34
2017-10-01T20:40:11.055Z,100627.18
2017-10-01T20:42:38.468Z,100626.77
2017-10-01T20:45:05.875Z,100633.91
2017-10-01T20:47:33.284Z,100635.83
2017-10-01T20:50:00.679Z,100629.16
2017-10-01T20:52:28.092Z,100637.94
2017-10-01T20:54:55.495Z,100638.77
2017-10-01T20:57:23.211Z,100632.63
2017-10-01T20:59:50.610Z,100634.19
2017-10-01T21:02:18.004Z,100629.58
2017-10-01T21:04:45.411Z,100635.25
2017-10-01T21:07:12.818Z,100636.24
2017-10-01T21:09:40.211Z,100639.77
2017-10-01T21:12:07.612Z,100634.61
2017-10-01T21:14:35.030Z,100630.45
2017-10-01T21:17:02.428Z,100628.17
2017-10-01T21:19:29.829Z,100621.39
2017-10-01T21:21:57.240Z,100618.53
2017-10-01T21:24:24.642Z,100607.77
2017-10-01T21:26:52.043Z,100607.07
2017-10-01T21:29:19.467Z,100598.36
2017-10-01T21:31:46.867Z,100600.28
2017-10-01T21:34:14.263Z,100596.80
2017-10-01T21:36:41.670Z,100594.17
2017-10-01T21:39:09.067Z,100591.41
2017-10-01T21:41:36.470Z,100594.23
2017-10-01T21:44:03.882Z,100591.00
2017-10-01T21:46:31.290Z,100593.40
2017-10-01T21:48:58.684Z,100590.70
2017-10-01T21:51:26.099Z,100585.17
2017-10-01T21:53:53.593Z,100585.14
2017-10-01T21:56:20.993Z,100577.84
2017-10-01T21:58:48.409Z,100575.47
2017-10-01T22:01:15.808Z,100570.66
2017-10-01T22:03:43.199Z,100566.41
2017-10-01T22:06:10.611Z,100563.78
2017-10-01T22:08:38.010Z,100563.53
2017-10-01T22:11:05.411Z,100565.58
2017-10-01T22:13:32.847Z,100569.09
2017-10-01T22:16:00.247Z,100569.73
2017-10-01T22:18:27.643Z,100560.97
2017-10-01T22:20:55.062Z,100556.80
2017-10-01T22:23:22.451Z,100555.14
2017-10-01T22:25:49.862Z,100553.48
2017-10-01T22:28:17.279Z,100551.20
2017-10-01T22:30:44.679Z,100553.79
2017-10-01T22:33:12.074Z,100555.48
2017-10-01T22:35:39.496Z,100557.83
2017-10-01T22:38:06.887Z,100554.27
2017-10-01T22:40:34.292Z,100553.98
2017-10-01T22:43:01.699Z,100549.17
2017-10-01T22:45:29.103Z,100532.48
2017-10-01T22:47:56.499Z,100527.29
2017-10-01T22:50:23.908Z,100524.38
2017-10-01T22:52:51.310Z,100525.37
2017-10-01T22:55:18.725Z,100521.46
2017-10-01T22:57:46.134Z,100522.48
2017-10-01T23:00:13.531Z,100521.08
2017-10-01T23:02:40.944Z,100511.09
2017-10-01T23:05:08.354Z,100506.20
2017-10-01T23:07:35.766Z,100507.70
2017-10-01T23:10:03.178Z,100502.20
2017-10-01T23:12:30.592Z,100498.88
2017-10-01T23:14:57.987Z,100496.45
2017-10-01T23:17:25.391Z,100498.53
2017-10-01T23:19:52.809Z,100501.50
2017-10-01T23:22:20.215Z,100492.06
2017-10-01T23:24:47.611Z,100501.09
2017-10-01T23:27:15.022Z,100498.94
2017-10-01T23:29:42.415Z,100499.36
2017-10-01T23:32:09.818Z,100493.41
2017-10-01T23:34:37.239Z,100479.55
2017-10-01T23:37:04.634Z,100478.75
2017-10-01T23:39:32.035Z,100472.33
2017-10-01T23:41:59.458Z,100463.78
2017-10-01T23:44:26.867Z,100454.98
2017-10-01T23:46:54.267Z,100447.85
2017-10-01T23:49:21.684Z,100444.11
2017-10-01T23:51:49.084Z,100435.73
2017-10-01T23:54:16.486Z,100432.85
2017-10-01T23:56:43.898Z,100434.16
2017-10-01T23:59:11.301Z,100427.61
